sensor_id;sensor_type;location;lat;lon;timestamp;P1;durP1;ratioP1;P2;durP2;ratioP2
71759;SDS011;59919;48.112;16.280;2023-04-25T00:01:58;10.90;;;4.95;;
71759;SDS011;59919;48.112;16.280;2023-04-25T00:04:45;12.20;;;5.00;;
71759;SDS011;59919;48.112;16.280;2023-04-25T00:07:19;11.27;;;4.72;;
71759;SDS011;59919;48.112;16.280;2023-04-25T00:09:53;13.10;;;5.47;;
71759;SDS011;59919;48.112;16.280;2023-04-25T00:12:27;12.38;;;4.68;;
71759;SDS011;59919;48.112;16.280;2023-04-25T00:15:04;9.95;;;4.40;;
71759;SDS011;59919;48.112;16.280;2023-04-25T00:17:36;11.20;;;4.57;;
71759;SDS011;59919;48.112;16.280;2023-04-25T00:20:10;12.07;;;5.18;;
71759;SDS011;59919;48.112;16.280;2023-04-25T00:22:44;12.75;;;4.60;;
71759;SDS011;59919;48.112;16.280;2023-04-25T00:25:18;8.52;;;4.50;;
71759;SDS011;59919;48.112;16.280;2023-04-25T00:27:52;13.20;;;5.20;;
71759;SDS011;59919;48.112;16.280;2023-04-25T00:30:23;7.70;;;3.92;;
71759;SDS011;59919;48.112;16.280;2023-04-25T00:32:56;11.32;;;4.80;;
71759;SDS011;59919;48.112;16.280;2023-04-25T00:35:42;10.60;;;4.40;;
71759;SDS011;59919;48.112;16.280;2023-04-25T00:38:16;8.82;;;3.83;;
71759;SDS011;59919;48.112;16.280;2023-04-25T00:40:51;11.23;;;5.13;;
71759;SDS011;59919;48.112;16.280;2023-04-25T00:43:25;11.25;;;4.32;;
71759;SDS011;59919;48.112;16.280;2023-04-25T00:46:00;11.63;;;4.35;;
71759;SDS011;59919;48.112;16.280;2023-04-25T00:48:34;10.95;;;4.20;;
71759;SDS011;59919;48.112;16.280;2023-04-25T00:51:09;12.52;;;5.18;;
71759;SDS011;59919;48.112;16.280;2023-04-25T00:56:20;9.52;;;4.15;;
71759;SDS011;59919;48.112;16.280;2023-04-25T00:58:52;9.35;;;4.03;;
71759;SDS011;59919;48.112;16.280;2023-04-25T01:01:27;10.88;;;4.05;;
71759;SDS011;59919;48.112;16.280;2023-04-25T01:04:01;11.02;;;4.72;;
71759;SDS011;59919;48.112;16.280;2023-04-25T01:06:35;10.27;;;4.22;;
71759;SDS011;59919;48.112;16.280;2023-04-25T01:09:09;13.57;;;4.75;;
71759;SDS011;59919;48.112;16.280;2023-04-25T01:11:43;9.02;;;3.88;;
71759;SDS011;59919;48.112;16.280;2023-04-25T01:14:14;9.13;;;4.15;;
71759;SDS011;59919;48.112;16.280;2023-04-25T01:16:45;11.45;;;4.50;;
71759;SDS011;59919;48.112;16.280;2023-04-25T01:19:17;10.50;;;4.97;;
71759;SDS011;59919;48.112;16.280;2023-04-25T01:21:48;10.30;;;4.97;;
71759;SDS011;59919;48.112;16.280;2023-04-25T01:24:27;9.55;;;3.95;;
71759;SDS011;59919;48.112;16.280;2023-04-25T01:26:58;11.60;;;4.70;;
71759;SDS011;59919;48.112;16.280;2023-04-25T01:29:37;10.38;;;4.47;;
71759;SDS011;59919;48.112;16.280;2023-04-25T01:32:11;10.63;;;4.30;;
71759;SDS011;59919;48.112;16.280;2023-04-25T01:34:45;7.85;;;3.80;;
71759;SDS011;59919;48.112;16.280;2023-04-25T01:37:16;8.98;;;4.20;;
71759;SDS011;59919;48.112;16.280;2023-04-25T01:39:48;9.68;;;3.80;;
71759;SDS011;59919;48.112;16.280;2023-04-25T01:42:23;9.88;;;4.10;;
71759;SDS011;59919;48.112;16.280;2023-04-25T01:44:58;9.13;;;4.28;;
71759;SDS011;59919;48.112;16.280;2023-04-25T01:47:35;10.43;;;4.50;;
71759;SDS011;59919;48.112;16.280;2023-04-25T01:50:22;10.35;;;4.55;;
71759;SDS011;59919;48.112;16.280;2023-04-25T01:52:56;7.97;;;3.83;;
71759;SDS011;59919;48.112;16.280;2023-04-25T01:55:27;10.40;;;4.32;;
71759;SDS011;59919;48.112;16.280;2023-04-25T01:57:58;11.02;;;4.07;;
71759;SDS011;59919;48.112;16.280;2023-04-25T02:00:32;9.13;;;4.68;;
71759;SDS011;59919;48.112;16.280;2023-04-25T02:03:03;8.48;;;3.63;;
71759;SDS011;59919;48.112;16.280;2023-04-25T02:05:39;11.27;;;4.70;;
71759;SDS011;59919;48.112;16.280;2023-04-25T02:08:11;10.57;;;3.95;;
71759;SDS011;59919;48.112;16.280;2023-04-25T02:10:42;7.95;;;3.67;;
71759;SDS011;59919;48.112;16.280;2023-04-25T02:13:16;10.40;;;4.55;;
71759;SDS011;59919;48.112;16.280;2023-04-25T02:15:49;8.77;;;3.83;;
71759;SDS011;59919;48.112;16.280;2023-04-25T02:18:20;9.00;;;3.88;;
71759;SDS011;59919;48.112;16.280;2023-04-25T02:20:54;12.43;;;5.05;;
71759;SDS011;59919;48.112;16.280;2023-04-25T02:23:25;8.40;;;3.88;;
71759;SDS011;59919;48.112;16.280;2023-04-25T02:26:01;11.45;;;4.82;;
71759;SDS011;59919;48.112;16.280;2023-04-25T02:28:35;8.90;;;4.15;;
71759;SDS011;59919;48.112;16.280;2023-04-25T02:31:09;8.73;;;3.70;;
71759;SDS011;59919;48.112;16.280;2023-04-25T02:33:40;8.68;;;4.00;;
71759;SDS011;59919;48.112;16.280;2023-04-25T02:36:14;10.63;;;4.30;;
71759;SDS011;59919;48.112;16.280;2023-04-25T02:38:48;6.68;;;3.40;;
71759;SDS011;59919;48.112;16.280;2023-04-25T02:41:19;9.35;;;4.18;;
71759;SDS011;59919;48.112;16.280;2023-04-25T02:43:53;7.88;;;3.58;;
71759;SDS011;59919;48.112;16.280;2023-04-25T02:46:24;9.00;;;4.25;;
71759;SDS011;59919;48.112;16.280;2023-04-25T02:49:02;9.88;;;3.63;;
71759;SDS011;59919;48.112;16.280;2023-04-25T02:51:34;10.05;;;4.15;;
71759;SDS011;59919;48.112;16.280;2023-04-25T02:54:06;12.05;;;4.05;;
71759;SDS011;59919;48.112;16.280;2023-04-25T02:56:37;9.68;;;4.07;;
71759;SDS011;59919;48.112;16.280;2023-04-25T02:59:11;8.90;;;4.28;;
71759;SDS011;59919;48.112;16.280;2023-04-25T03:01:44;8.23;;;4.43;;
71759;SDS011;59919;48.112;16.280;2023-04-25T03:04:15;8.48;;;4.05;;
71759;SDS011;59919;48.112;16.280;2023-04-25T03:06:50;8.05;;;3.58;;
71759;SDS011;59919;48.112;16.280;2023-04-25T03:09:21;6.72;;;3.70;;
71759;SDS011;59919;48.112;16.280;2023-04-25T03:11:52;8.57;;;3.80;;
71759;SDS011;59919;48.112;16.280;2023-04-25T03:14:27;8.30;;;3.85;;
71759;SDS011;59919;48.112;16.280;2023-04-25T03:17:05;8.30;;;3.55;;
71759;SDS011;59919;48.112;16.280;2023-04-25T03:19:39;8.07;;;4.22;;
71759;SDS011;59919;48.112;16.280;2023-04-25T03:22:10;8.43;;;3.83;;
71759;SDS011;59919;48.112;16.280;2023-04-25T03:24:44;7.28;;;3.80;;
71759;SDS011;59919;48.112;16.280;2023-04-25T03:27:19;9.02;;;3.72;;
71759;SDS011;59919;48.112;16.280;2023-04-25T03:29:53;8.68;;;3.78;;
71759;SDS011;59919;48.112;16.280;2023-04-25T03:32:29;7.88;;;3.33;;
71759;SDS011;59919;48.112;16.280;2023-04-25T03:35:01;8.90;;;4.03;;
71759;SDS011;59919;48.112;16.280;2023-04-25T03:37:35;8.95;;;3.92;;
71759;SDS011;59919;48.112;16.280;2023-04-25T03:40:06;8.88;;;4.05;;
71759;SDS011;59919;48.112;16.280;2023-04-25T03:42:43;7.53;;;3.58;;
71759;SDS011;59919;48.112;16.280;2023-04-25T03:45:17;7.05;;;3.58;;
71759;SDS011;59919;48.112;16.280;2023-04-25T03:47:49;6.97;;;3.70;;
71759;SDS011;59919;48.112;16.280;2023-04-25T03:50:20;7.28;;;3.38;;
71759;SDS011;59919;48.112;16.280;2023-04-25T03:52:53;9.43;;;3.75;;
71759;SDS011;59919;48.112;16.280;2023-04-25T03:55:27;8.18;;;3.55;;
71759;SDS011;59919;48.112;16.280;2023-04-25T03:58:01;7.45;;;3.42;;
71759;SDS011;59919;48.112;16.280;2023-04-25T04:00:35;6.90;;;3.53;;
71759;SDS011;59919;48.112;16.280;2023-04-25T04:03:06;7.80;;;3.67;;
71759;SDS011;59919;48.112;16.280;2023-04-25T04:05:37;6.45;;;3.60;;
71759;SDS011;59919;48.112;16.280;2023-04-25T04:08:11;6.40;;;3.78;;
71759;SDS011;59919;48.112;16.280;2023-04-25T04:10:42;8.63;;;4.07;;
71759;SDS011;59919;48.112;16.280;2023-04-25T04:13:16;8.25;;;3.88;;
71759;SDS011;59919;48.112;16.280;2023-04-25T04:15:50;10.13;;;4.70;;
71759;SDS011;59919;48.112;16.280;2023-04-25T04:18:21;6.47;;;3.47;;
71759;SDS011;59919;48.112;16.280;2023-04-25T04:20:53;10.55;;;4.13;;
71759;SDS011;59919;48.112;16.280;2023-04-25T04:23:24;6.38;;;3.58;;
71759;SDS011;59919;48.112;16.280;2023-04-25T04:25:58;6.85;;;3.50;;
71759;SDS011;59919;48.112;16.280;2023-04-25T04:28:30;7.03;;;3.97;;
71759;SDS011;59919;48.112;16.280;2023-04-25T04:31:01;9.73;;;4.70;;
71759;SDS011;59919;48.112;16.280;2023-04-25T04:33:35;6.97;;;3.47;;
71759;SDS011;59919;48.112;16.280;2023-04-25T04:36:07;7.32;;;3.78;;
71759;SDS011;59919;48.112;16.280;2023-04-25T04:38:39;6.18;;;3.10;;
71759;SDS011;59919;48.112;16.280;2023-04-25T04:41:13;6.32;;;3.55;;
71759;SDS011;59919;48.112;16.280;2023-04-25T04:43:44;6.45;;;3.42;;
71759;SDS011;59919;48.112;16.280;2023-04-25T04:46:15;7.13;;;3.65;;
71759;SDS011;59919;48.112;16.280;2023-04-25T04:48:46;7.43;;;3.17;;
71759;SDS011;59919;48.112;16.280;2023-04-25T04:51:18;6.55;;;3.65;;
71759;SDS011;59919;48.112;16.280;2023-04-25T04:53:49;7.10;;;4.20;;
71759;SDS011;59919;48.112;16.280;2023-04-25T04:56:22;6.20;;;3.45;;
71759;SDS011;59919;48.112;16.280;2023-04-25T04:58:54;7.03;;;3.80;;
71759;SDS011;59919;48.112;16.280;2023-04-25T05:01:28;7.03;;;3.53;;
71759;SDS011;59919;48.112;16.280;2023-04-25T05:04:02;5.60;;;3.05;;
71759;SDS011;59919;48.112;16.280;2023-04-25T05:06:34;7.45;;;3.33;;
71759;SDS011;59919;48.112;16.280;2023-04-25T05:09:05;5.85;;;3.30;;
71759;SDS011;59919;48.112;16.280;2023-04-25T05:11:36;7.43;;;3.72;;
71759;SDS011;59919;48.112;16.280;2023-04-25T05:14:07;7.53;;;3.58;;
71759;SDS011;59919;48.112;16.280;2023-04-25T05:16:38;5.75;;;3.08;;
71759;SDS011;59919;48.112;16.280;2023-04-25T05:19:09;6.28;;;3.72;;
71759;SDS011;59919;48.112;16.280;2023-04-25T05:21:43;6.40;;;3.70;;
71759;SDS011;59919;48.112;16.280;2023-04-25T05:24:19;6.18;;;3.17;;
71759;SDS011;59919;48.112;16.280;2023-04-25T05:26:52;6.35;;;3.13;;
71759;SDS011;59919;48.112;16.280;2023-04-25T05:29:25;5.78;;;3.60;;
71759;SDS011;59919;48.112;16.280;2023-04-25T05:31:57;6.65;;;3.80;;
71759;SDS011;59919;48.112;16.280;2023-04-25T05:34:28;5.53;;;3.35;;
71759;SDS011;59919;48.112;16.280;2023-04-25T05:37:01;5.97;;;2.97;;
71759;SDS011;59919;48.112;16.280;2023-04-25T05:39:32;5.50;;;3.03;;
71759;SDS011;59919;48.112;16.280;2023-04-25T05:42:03;6.18;;;3.38;;
71759;SDS011;59919;48.112;16.280;2023-04-25T05:44:37;3.97;;;2.60;;
71759;SDS011;59919;48.112;16.280;2023-04-25T05:47:11;5.03;;;3.00;;
71759;SDS011;59919;48.112;16.280;2023-04-25T05:49:44;26.17;;;6.10;;
71759;SDS011;59919;48.112;16.280;2023-04-25T05:52:16;17.40;;;4.32;;
71759;SDS011;59919;48.112;16.280;2023-04-25T05:54:53;12.27;;;4.07;;
71759;SDS011;59919;48.112;16.280;2023-04-25T05:57:30;13.88;;;4.60;;
71759;SDS011;59919;48.112;16.280;2023-04-25T06:00:07;14.50;;;4.85;;
71759;SDS011;59919;48.112;16.280;2023-04-25T06:02:42;10.68;;;4.05;;
71759;SDS011;59919;48.112;16.280;2023-04-25T06:05:13;9.80;;;3.80;;
71759;SDS011;59919;48.112;16.280;2023-04-25T06:07:44;12.35;;;4.90;;
71759;SDS011;59919;48.112;16.280;2023-04-25T06:10:15;14.15;;;4.93;;
71759;SDS011;59919;48.112;16.280;2023-04-25T06:12:46;19.17;;;4.40;;
71759;SDS011;59919;48.112;16.280;2023-04-25T06:15:17;9.50;;;4.22;;
71759;SDS011;59919;48.112;16.280;2023-04-25T06:17:48;15.23;;;6.43;;
71759;SDS011;59919;48.112;16.280;2023-04-25T06:20:19;13.85;;;5.38;;
71759;SDS011;59919;48.112;16.280;2023-04-25T06:22:57;14.00;;;4.85;;
71759;SDS011;59919;48.112;16.280;2023-04-25T06:25:28;11.80;;;4.20;;
71759;SDS011;59919;48.112;16.280;2023-04-25T06:27:59;17.75;;;4.85;;
71759;SDS011;59919;48.112;16.280;2023-04-25T06:30:30;10.88;;;4.97;;
71759;SDS011;59919;48.112;16.280;2023-04-25T06:33:04;9.07;;;3.85;;
71759;SDS011;59919;48.112;16.280;2023-04-25T06:35:35;8.27;;;4.32;;
71759;SDS011;59919;48.112;16.280;2023-04-25T06:38:08;7.97;;;3.70;;
71759;SDS011;59919;48.112;16.280;2023-04-25T06:40:45;10.10;;;3.78;;
71759;SDS011;59919;48.112;16.280;2023-04-25T06:43:16;8.23;;;3.70;;
71759;SDS011;59919;48.112;16.280;2023-04-25T06:45:49;8.38;;;3.47;;
71759;SDS011;59919;48.112;16.280;2023-04-25T06:48:23;7.13;;;3.10;;
71759;SDS011;59919;48.112;16.280;2023-04-25T06:50:54;7.50;;;3.55;;
71759;SDS011;59919;48.112;16.280;2023-04-25T06:53:30;8.15;;;3.88;;
71759;SDS011;59919;48.112;16.280;2023-04-25T06:56:01;10.40;;;3.58;;
71759;SDS011;59919;48.112;16.280;2023-04-25T06:58:35;8.43;;;3.30;;
71759;SDS011;59919;48.112;16.280;2023-04-25T07:01:10;10.50;;;3.42;;
71759;SDS011;59919;48.112;16.280;2023-04-25T07:03:43;8.10;;;3.60;;
71759;SDS011;59919;48.112;16.280;2023-04-25T07:06:17;8.85;;;3.50;;
71759;SDS011;59919;48.112;16.280;2023-04-25T07:08:52;9.77;;;4.35;;
71759;SDS011;59919;48.112;16.280;2023-04-25T07:11:23;13.43;;;4.53;;
71759;SDS011;59919;48.112;16.280;2023-04-25T07:13:54;8.45;;;4.40;;
71759;SDS011;59919;48.112;16.280;2023-04-25T07:16:26;7.47;;;3.93;;
71759;SDS011;59919;48.112;16.280;2023-04-25T07:19:01;10.65;;;4.22;;
71759;SDS011;59919;48.112;16.280;2023-04-25T07:21:35;7.28;;;3.70;;
71759;SDS011;59919;48.112;16.280;2023-04-25T07:24:06;8.77;;;3.78;;
71759;SDS011;59919;48.112;16.280;2023-04-25T07:26:38;9.02;;;4.68;;
71759;SDS011;59919;48.112;16.280;2023-04-25T07:29:09;10.00;;;4.85;;
71759;SDS011;59919;48.112;16.280;2023-04-25T07:31:44;6.22;;;3.60;;
71759;SDS011;59919;48.112;16.280;2023-04-25T07:34:15;11.35;;;4.18;;
71759;SDS011;59919;48.112;16.280;2023-04-25T07:36:48;7.47;;;4.00;;
71759;SDS011;59919;48.112;16.280;2023-04-25T07:39:19;8.27;;;4.05;;
71759;SDS011;59919;48.112;16.280;2023-04-25T07:41:50;10.70;;;4.32;;
71759;SDS011;59919;48.112;16.280;2023-04-25T07:44:21;8.13;;;3.60;;
71759;SDS011;59919;48.112;16.280;2023-04-25T07:46:52;7.78;;;3.90;;
71759;SDS011;59919;48.112;16.280;2023-04-25T07:49:26;7.95;;;3.80;;
71759;SDS011;59919;48.112;16.280;2023-04-25T07:51:57;9.15;;;4.28;;
71759;SDS011;59919;48.112;16.280;2023-04-25T07:54:28;8.77;;;4.00;;
71759;SDS011;59919;48.112;16.280;2023-04-25T07:56:59;8.32;;;3.95;;
71759;SDS011;59919;48.112;16.280;2023-04-25T07:59:30;9.25;;;4.07;;
71759;SDS011;59919;48.112;16.280;2023-04-25T08:02:01;7.13;;;3.75;;
71759;SDS011;59919;48.112;16.280;2023-04-25T08:04:34;8.98;;;4.65;;
71759;SDS011;59919;48.112;16.280;2023-04-25T08:07:05;9.15;;;4.13;;
71759;SDS011;59919;48.112;16.280;2023-04-25T08:09:36;8.35;;;4.25;;
71759;SDS011;59919;48.112;16.280;2023-04-25T08:12:07;8.18;;;4.28;;
71759;SDS011;59919;48.112;16.280;2023-04-25T08:14:39;6.47;;;3.80;;
71759;SDS011;59919;48.112;16.280;2023-04-25T08:17:12;8.48;;;4.32;;
71759;SDS011;59919;48.112;16.280;2023-04-25T08:19:43;7.93;;;3.80;;
71759;SDS011;59919;48.112;16.280;2023-04-25T08:22:17;8.85;;;3.97;;
71759;SDS011;59919;48.112;16.280;2023-04-25T08:24:49;8.57;;;4.03;;
71759;SDS011;59919;48.112;16.280;2023-04-25T08:27:21;7.25;;;3.45;;
71759;SDS011;59919;48.112;16.280;2023-04-25T08:29:56;9.13;;;3.90;;
71759;SDS011;59919;48.112;16.280;2023-04-25T08:32:31;8.00;;;3.45;;
71759;SDS011;59919;48.112;16.280;2023-04-25T08:35:02;7.45;;;3.92;;
71759;SDS011;59919;48.112;16.280;2023-04-25T08:37:36;8.00;;;4.15;;
71759;SDS011;59919;48.112;16.280;2023-04-25T08:40:08;7.95;;;3.50;;
71759;SDS011;59919;48.112;16.280;2023-04-25T08:42:44;8.38;;;4.32;;
71759;SDS011;59919;48.112;16.280;2023-04-25T08:45:26;9.82;;;5.18;;
71759;SDS011;59919;48.112;16.280;2023-04-25T08:50:33;6.82;;;3.72;;
71759;SDS011;59919;48.112;16.280;2023-04-25T08:53:08;7.00;;;3.67;;
71759;SDS011;59919;48.112;16.280;2023-04-25T08:55:51;6.70;;;3.90;;
71759;SDS011;59919;48.112;16.280;2023-04-25T08:58:24;8.85;;;4.18;;
71759;SDS011;59919;48.112;16.280;2023-04-25T09:00:58;8.70;;;4.78;;
71759;SDS011;59919;48.112;16.280;2023-04-25T09:03:30;7.43;;;4.05;;
71759;SDS011;59919;48.112;16.280;2023-04-25T09:06:01;8.02;;;4.20;;
71759;SDS011;59919;48.112;16.280;2023-04-25T09:08:36;7.68;;;3.70;;
71759;SDS011;59919;48.112;16.280;2023-04-25T09:11:12;7.18;;;3.50;;
71759;SDS011;59919;48.112;16.280;2023-04-25T09:13:46;5.28;;;2.97;;
71759;SDS011;59919;48.112;16.280;2023-04-25T09:16:20;5.82;;;3.40;;
71759;SDS011;59919;48.112;16.280;2023-04-25T09:18:52;5.38;;;3.28;;
71759;SDS011;59919;48.112;16.280;2023-04-25T09:21:31;7.25;;;3.85;;
71759;SDS011;59919;48.112;16.280;2023-04-25T09:24:08;6.40;;;3.28;;
71759;SDS011;59919;48.112;16.280;2023-04-25T09:26:43;7.00;;;4.05;;
71759;SDS011;59919;48.112;16.280;2023-04-25T09:29:20;5.60;;;3.28;;
71759;SDS011;59919;48.112;16.280;2023-04-25T09:32:43;6.03;;;3.60;;
71759;SDS011;59919;48.112;16.280;2023-04-25T09:34:57;7.65;;;3.92;;
71759;SDS011;59919;48.112;16.280;2023-04-25T09:37:29;7.53;;;3.65;;
71759;SDS011;59919;48.112;16.280;2023-04-25T09:40:04;5.00;;;3.35;;
71759;SDS011;59919;48.112;16.280;2023-04-25T09:42:40;5.97;;;3.05;;
71759;SDS011;59919;48.112;16.280;2023-04-25T09:45:20;5.80;;;3.22;;
71759;SDS011;59919;48.112;16.280;2023-04-25T09:47:55;6.63;;;3.17;;
71759;SDS011;59919;48.112;16.280;2023-04-25T09:50:36;5.22;;;3.15;;
71759;SDS011;59919;48.112;16.280;2023-04-25T09:53:12;6.88;;;3.50;;
71759;SDS011;59919;48.112;16.280;2023-04-25T09:55:43;6.20;;;3.63;;
71759;SDS011;59919;48.112;16.280;2023-04-25T09:58:18;7.43;;;3.85;;
71759;SDS011;59919;48.112;16.280;2023-04-25T10:00:52;6.53;;;3.58;;
71759;SDS011;59919;48.112;16.280;2023-04-25T10:03:32;7.35;;;4.30;;
71759;SDS011;59919;48.112;16.280;2023-04-25T10:06:07;7.40;;;3.63;;
71759;SDS011;59919;48.112;16.280;2023-04-25T10:08:44;6.18;;;3.35;;
71759;SDS011;59919;48.112;16.280;2023-04-25T10:11:21;6.70;;;3.92;;
71759;SDS011;59919;48.112;16.280;2023-04-25T10:13:55;5.97;;;3.78;;
71759;SDS011;59919;48.112;16.280;2023-04-25T10:16:27;6.90;;;3.40;;
71759;SDS011;59919;48.112;16.280;2023-04-25T10:18:59;6.38;;;3.05;;
71759;SDS011;59919;48.112;16.280;2023-04-25T10:21:34;5.60;;;3.25;;
71759;SDS011;59919;48.112;16.280;2023-04-25T10:24:11;4.93;;;3.10;;
71759;SDS011;59919;48.112;16.280;2023-04-25T10:26:42;5.60;;;3.35;;
71759;SDS011;59919;48.112;16.280;2023-04-25T10:29:21;5.45;;;3.40;;
71759;SDS011;59919;48.112;16.280;2023-04-25T10:31:59;5.97;;;3.10;;
71759;SDS011;59919;48.112;16.280;2023-04-25T10:34:42;6.65;;;3.53;;
71759;SDS011;59919;48.112;16.280;2023-04-25T10:37:19;5.53;;;3.75;;
71759;SDS011;59919;48.112;16.280;2023-04-25T10:39:53;7.72;;;3.83;;
71759;SDS011;59919;48.112;16.280;2023-04-25T10:42:27;5.25;;;2.90;;
71759;SDS011;59919;48.112;16.280;2023-04-25T10:45:04;5.72;;;3.30;;
71759;SDS011;59919;48.112;16.280;2023-04-25T10:47:43;4.07;;;2.75;;
71759;SDS011;59919;48.112;16.280;2023-04-25T10:50:15;5.95;;;3.10;;
71759;SDS011;59919;48.112;16.280;2023-04-25T10:52:51;5.63;;;3.50;;
71759;SDS011;59919;48.112;16.280;2023-04-25T10:55:50;5.65;;;3.35;;
71759;SDS011;59919;48.112;16.280;2023-04-25T10:58:24;6.68;;;3.47;;
71759;SDS011;59919;48.112;16.280;2023-04-25T11:00:56;9.57;;;4.93;;
71759;SDS011;59919;48.112;16.280;2023-04-25T11:03:27;7.30;;;3.42;;
71759;SDS011;59919;48.112;16.280;2023-04-25T11:05:58;5.03;;;3.65;;
71759;SDS011;59919;48.112;16.280;2023-04-25T11:08:36;6.57;;;3.80;;
71759;SDS011;59919;48.112;16.280;2023-04-25T11:11:20;5.57;;;3.55;;
71759;SDS011;59919;48.112;16.280;2023-04-25T11:13:51;6.47;;;4.55;;
71759;SDS011;59919;48.112;16.280;2023-04-25T11:16:23;7.43;;;4.90;;
71759;SDS011;59919;48.112;16.280;2023-04-25T11:18:57;5.25;;;2.83;;
71759;SDS011;59919;48.112;16.280;2023-04-25T11:21:31;6.30;;;3.47;;
71759;SDS011;59919;48.112;16.280;2023-04-25T11:24:02;7.45;;;3.65;;
71759;SDS011;59919;48.112;16.280;2023-04-25T11:26:34;8.27;;;4.05;;
71759;SDS011;59919;48.112;16.280;2023-04-25T11:29:08;4.88;;;3.38;;
71759;SDS011;59919;48.112;16.280;2023-04-25T11:31:42;5.55;;;3.50;;
71759;SDS011;59919;48.112;16.280;2023-04-25T11:34:19;5.85;;;3.45;;
71759;SDS011;59919;48.112;16.280;2023-04-25T11:36:53;6.13;;;4.45;;
71759;SDS011;59919;48.112;16.280;2023-04-25T11:39:24;5.63;;;3.13;;
71759;SDS011;59919;48.112;16.280;2023-04-25T11:41:56;6.30;;;3.40;;
71759;SDS011;59919;48.112;16.280;2023-04-25T11:44:30;5.30;;;2.92;;
71759;SDS011;59919;48.112;16.280;2023-04-25T11:47:01;5.80;;;3.20;;
71759;SDS011;59919;48.112;16.280;2023-04-25T11:49:35;6.22;;;2.88;;
71759;SDS011;59919;48.112;16.280;2023-04-25T11:52:08;6.03;;;3.03;;
71759;SDS011;59919;48.112;16.280;2023-04-25T11:54:39;5.38;;;2.78;;
71759;SDS011;59919;48.112;16.280;2023-04-25T11:57:11;7.85;;;4.05;;
71759;SDS011;59919;48.112;16.280;2023-04-25T11:59:42;5.35;;;3.40;;
71759;SDS011;59919;48.112;16.280;2023-04-25T12:02:25;5.85;;;3.53;;
71759;SDS011;59919;48.112;16.280;2023-04-25T12:04:59;5.75;;;4.20;;
71759;SDS011;59919;48.112;16.280;2023-04-25T12:07:30;5.82;;;3.83;;
71759;SDS011;59919;48.112;16.280;2023-04-25T12:10:06;5.63;;;3.10;;
71759;SDS011;59919;48.112;16.280;2023-04-25T12:12:47;5.95;;;3.90;;
71759;SDS011;59919;48.112;16.280;2023-04-25T12:15:23;6.03;;;4.20;;
71759;SDS011;59919;48.112;16.280;2023-04-25T12:17:58;6.65;;;3.47;;
71759;SDS011;59919;48.112;16.280;2023-04-25T12:20:32;7.30;;;4.05;;
71759;SDS011;59919;48.112;16.280;2023-04-25T12:23:05;6.95;;;3.40;;
71759;SDS011;59919;48.112;16.280;2023-04-25T12:25:38;5.20;;;3.28;;
71759;SDS011;59919;48.112;16.280;2023-04-25T12:28:19;5.00;;;3.15;;
71759;SDS011;59919;48.112;16.280;2023-04-25T12:31:05;4.65;;;2.80;;
71759;SDS011;59919;48.112;16.280;2023-04-25T12:33:37;6.45;;;3.35;;
71759;SDS011;59919;48.112;16.280;2023-04-25T12:36:11;6.15;;;3.28;;
71759;SDS011;59919;48.112;16.280;2023-04-25T12:38:44;5.75;;;3.33;;
71759;SDS011;59919;48.112;16.280;2023-04-25T12:41:15;6.30;;;3.92;;
71759;SDS011;59919;48.112;16.280;2023-04-25T12:43:46;6.30;;;3.67;;
71759;SDS011;59919;48.112;16.280;2023-04-25T12:46:17;4.72;;;3.38;;
71759;SDS011;59919;48.112;16.280;2023-04-25T12:48:50;4.82;;;2.65;;
71759;SDS011;59919;48.112;16.280;2023-04-25T12:51:24;5.13;;;3.63;;
71759;SDS011;59919;48.112;16.280;2023-04-25T12:54:04;6.05;;;3.15;;
71759;SDS011;59919;48.112;16.280;2023-04-25T12:56:39;6.03;;;3.42;;
71759;SDS011;59919;48.112;16.280;2023-04-25T12:59:15;6.05;;;3.30;;
71759;SDS011;59919;48.112;16.280;2023-04-25T13:01:47;4.32;;;2.88;;
71759;SDS011;59919;48.112;16.280;2023-04-25T13:04:20;4.75;;;2.72;;
71759;SDS011;59919;48.112;16.280;2023-04-25T13:06:54;5.20;;;3.08;;
71759;SDS011;59919;48.112;16.280;2023-04-25T13:09:27;5.45;;;3.00;;
71759;SDS011;59919;48.112;16.280;2023-04-25T13:11:59;4.68;;;2.80;;
71759;SDS011;59919;48.112;16.280;2023-04-25T13:14:30;4.63;;;3.00;;
71759;SDS011;59919;48.112;16.280;2023-04-25T13:17:01;5.20;;;3.13;;
71759;SDS011;59919;48.112;16.280;2023-04-25T13:19:45;5.75;;;2.90;;
71759;SDS011;59919;48.112;16.280;2023-04-25T13:22:19;5.40;;;2.80;;
71759;SDS011;59919;48.112;16.280;2023-04-25T13:24:50;6.53;;;3.60;;
71759;SDS011;59919;48.112;16.280;2023-04-25T13:27:24;4.35;;;2.60;;
71759;SDS011;59919;48.112;16.280;2023-04-25T13:29:58;4.60;;;2.60;;
71759;SDS011;59919;48.112;16.280;2023-04-25T13:32:30;3.95;;;2.60;;
71759;SDS011;59919;48.112;16.280;2023-04-25T13:35:09;5.63;;;2.70;;
71759;SDS011;59919;48.112;16.280;2023-04-25T13:37:44;4.57;;;2.90;;
71759;SDS011;59919;48.112;16.280;2023-04-25T13:40:15;4.63;;;2.70;;
71759;SDS011;59919;48.112;16.280;2023-04-25T13:42:49;7.53;;;3.30;;
71759;SDS011;59919;48.112;16.280;2023-04-25T13:45:21;5.38;;;3.22;;
71759;SDS011;59919;48.112;16.280;2023-04-25T13:47:53;6.15;;;3.00;;
71759;SDS011;59919;48.112;16.280;2023-04-25T13:50:27;5.00;;;3.00;;
71759;SDS011;59919;48.112;16.280;2023-04-25T13:52:59;3.72;;;2.42;;
71759;SDS011;59919;48.112;16.280;2023-04-25T13:55:31;5.70;;;3.28;;
71759;SDS011;59919;48.112;16.280;2023-04-25T13:58:02;4.95;;;3.10;;
71759;SDS011;59919;48.112;16.280;2023-04-25T14:00:40;4.38;;;2.60;;
71759;SDS011;59919;48.112;16.280;2023-04-25T14:03:15;4.78;;;2.90;;
71759;SDS011;59919;48.112;16.280;2023-04-25T14:05:52;6.28;;;3.03;;
71759;SDS011;59919;48.112;16.280;2023-04-25T14:08:23;7.25;;;3.42;;
71759;SDS011;59919;48.112;16.280;2023-04-25T14:10:56;5.35;;;3.13;;
71759;SDS011;59919;48.112;16.280;2023-04-25T14:13:31;5.25;;;3.20;;
71759;SDS011;59919;48.112;16.280;2023-04-25T14:16:02;5.93;;;3.25;;
71759;SDS011;59919;48.112;16.280;2023-04-25T14:18:35;5.35;;;3.40;;
71759;SDS011;59919;48.112;16.280;2023-04-25T14:21:09;4.15;;;2.80;;
71759;SDS011;59919;48.112;16.280;2023-04-25T14:23:44;4.32;;;3.13;;
71759;SDS011;59919;48.112;16.280;2023-04-25T14:26:18;5.53;;;2.83;;
71759;SDS011;59919;48.112;16.280;2023-04-25T14:28:54;4.82;;;2.42;;
71759;SDS011;59919;48.112;16.280;2023-04-25T14:31:31;7.65;;;3.60;;
71759;SDS011;59919;48.112;16.280;2023-04-25T14:34:02;4.65;;;3.10;;
71759;SDS011;59919;48.112;16.280;2023-04-25T14:36:38;6.07;;;3.53;;
71759;SDS011;59919;48.112;16.280;2023-04-25T14:39:09;5.53;;;3.35;;
71759;SDS011;59919;48.112;16.280;2023-04-25T14:41:40;4.88;;;2.80;;
71759;SDS011;59919;48.112;16.280;2023-04-25T14:44:16;4.82;;;2.90;;
71759;SDS011;59919;48.112;16.280;2023-04-25T14:46:50;5.13;;;2.85;;
71759;SDS011;59919;48.112;16.280;2023-04-25T14:49:22;4.47;;;2.53;;
71759;SDS011;59919;48.112;16.280;2023-04-25T14:51:56;4.72;;;3.15;;
71759;SDS011;59919;48.112;16.280;2023-04-25T14:54:27;4.90;;;3.05;;
71759;SDS011;59919;48.112;16.280;2023-04-25T14:57:03;5.38;;;3.58;;
71759;SDS011;59919;48.112;16.280;2023-04-25T14:59:34;3.63;;;2.20;;
71759;SDS011;59919;48.112;16.280;2023-04-25T15:02:08;6.32;;;3.15;;
71759;SDS011;59919;48.112;16.280;2023-04-25T15:04:41;7.40;;;3.85;;
71759;SDS011;59919;48.112;16.280;2023-04-25T15:07:15;5.60;;;2.83;;
71759;SDS011;59919;48.112;16.280;2023-04-25T15:09:50;4.38;;;2.65;;
71759;SDS011;59919;48.112;16.280;2023-04-25T15:12:21;5.28;;;3.35;;
71759;SDS011;59919;48.112;16.280;2023-04-25T15:14:52;4.93;;;2.70;;
71759;SDS011;59919;48.112;16.280;2023-04-25T15:17:23;6.00;;;3.50;;